Time;durP1;ratioP1;P1;durP2;ratioP2;P2;SDS_P1;SDS_P2;PMS_P1;PMS_P2;Temp;Humidity;BMP_temperature;BMP_pressure;BME280_temperature;BME280_humidity;BME280_pressure;Samples;Min_cycle;Max_cycle;Signal;HPM_P1;HPM_P2
2022/12/05 00:01:42;;;;;;;46.08;23.55;;;2.50;99.90;;;-144.05;73.59;125687.94;5017046;28;20038;-86
2022/12/05 00:04:12;;;;;;;47.13;24.58;;;2.50;99.90;;;-144.05;74.04;125687.94;5015082;28;20061;-86
2022/12/05 00:06:41;;;;;;;38.58;20.27;;;2.50;99.90;;;-144.05;73.92;125687.94;5015986;28;20073;-87
2022/12/05 00:09:11;;;;;;;43.42;21.63;;;2.50;99.90;;;-144.05;73.96;125687.94;5015416;28;20489;-85
2022/12/05 00:11:41;;;;;;;36.65;19.65;;;2.50;99.90;;;-144.05;73.95;125687.94;5016768;28;20121;-86
2022/12/05 00:14:08;;;;;;;38.17;20.58;;;2.50;99.90;;;-144.05;74.67;125687.94;5017224;28;20058;-84
2022/12/05 00:16:39;;;;;;;41.50;20.70;;;2.40;99.90;;;-144.05;74.07;125687.94;5016950;28;20030;-86
2022/12/05 00:19:11;;;;;;;37.65;19.67;;;2.40;99.90;;;-144.05;74.16;125687.94;5017510;28;20061;-88
2022/12/05 00:21:37;;;;;;;37.13;20.00;;;2.50;99.90;;;-144.05;74.17;125687.94;5018952;28;20195;-88
2022/12/05 00:24:08;;;;;;;40.67;20.23;;;2.50;99.90;;;-144.05;75.06;125687.94;5019723;28;20387;-85
2022/12/05 00:26:34;;;;;;;35.88;18.52;;;2.40;99.90;;;-144.05;74.81;125687.94;5034254;28;20030;-84
2022/12/05 00:29:00;;;;;;;41.28;20.63;;;2.40;99.90;;;-144.05;74.29;125687.94;5021074;28;20034;-85
2022/12/05 00:31:27;;;;;;;44.88;21.30;;;2.50;99.90;;;-144.05;74.55;125687.94;5012933;28;20038;-85
2022/12/05 00:33:55;;;;;;;39.20;20.27;;;2.50;99.90;;;-144.05;74.71;125687.94;5011722;28;20112;-85
2022/12/05 00:36:28;;;;;;;39.10;20.42;;;2.50;99.90;;;-144.05;74.63;125687.94;5011174;28;20368;-86
2022/12/05 00:38:58;;;;;;;32.45;19.90;;;2.50;99.90;;;-144.05;74.39;125687.94;5012180;28;20038;-85
2022/12/05 00:41:28;;;;;;;40.05;20.13;;;2.50;99.90;;;-144.05;74.63;125687.94;5013067;28;20493;-86
2022/12/05 00:43:59;;;;;;;44.28;19.95;;;2.50;99.90;;;-144.05;74.41;125687.94;5028873;28;20129;-84
2022/12/05 00:46:30;;;;;;;38.78;20.65;;;2.50;99.90;;;-144.05;74.66;125687.94;5014019;28;20137;-85
2022/12/05 00:48:59;;;;;;;41.25;21.65;;;2.50;99.90;;;-144.05;74.41;125687.94;5011992;28;20029;-85
2022/12/05 00:51:44;;;;;;;35.75;20.02;;;2.50;99.90;;;-144.05;74.38;125687.94;5012322;28;20030;-85
2022/12/05 00:54:15;;;;;;;37.42;19.98;;;2.50;99.90;;;-144.05;75.32;125687.94;5012266;28;20470;-87
2022/12/05 00:56:43;;;;;;;41.17;20.30;;;2.50;99.90;;;-144.05;74.77;125687.94;5013578;28;20084;-86
2022/12/05 00:59:17;;;;;;;40.47;20.20;;;2.50;99.90;;;-144.05;75.13;125687.94;5013612;28;20030;-85
2022/12/05 01:01:46;;;;;;;38.92;20.50;;;2.50;99.90;;;-144.05;75.17;125687.94;5012294;28;20100;-87
2022/12/05 01:04:23;;;;;;;39.05;21.25;;;2.50;99.90;;;-144.05;75.46;125687.94;5012546;28;20048;-86
2022/12/05 01:06:54;;;;;;;45.05;21.13;;;2.50;99.90;;;-144.05;75.53;125687.94;5012436;28;20048;-84
2022/12/05 01:09:21;;;;;;;42.22;20.52;;;2.50;99.90;;;-144.05;75.72;125687.94;5011978;28;20038;-85
2022/12/05 01:11:48;;;;;;;38.30;19.90;;;2.50;99.90;;;-144.05;75.77;125687.94;5012051;28;20394;-87
2022/12/05 01:14:20;;;;;;;40.55;21.10;;;2.50;99.90;;;-144.05;75.77;125687.94;5013341;28;20429;-85
2022/12/05 01:16:49;;;;;;;41.50;21.38;;;2.50;99.90;;;-144.05;76.04;125687.94;5013070;28;20470;-88
2022/12/05 01:19:31;;;;;;;39.58;21.33;;;2.50;99.90;;;-144.05;75.86;125687.94;5011013;28;20034;-86
2022/12/05 01:21:58;;;;;;;40.20;21.08;;;2.50;99.90;;;-144.05;75.72;125687.94;5012058;28;20033;-85
2022/12/05 01:24:27;;;;;;;45.38;24.13;;;2.40;99.90;;;-144.05;76.08;125687.94;5013367;28;20037;-84
2022/12/05 01:26:54;;;;;;;45.40;22.40;;;2.40;99.90;;;-144.05;75.77;125687.94;5013584;28;20460;-84
2022/12/05 01:29:23;;;;;;;38.78;20.38;;;2.40;99.90;;;-144.05;75.94;125687.94;5012944;28;20053;-87
2022/12/05 01:31:49;;;;;;;44.70;24.60;;;2.40;99.90;;;-144.05;75.84;125687.94;5011355;28;20033;-84
2022/12/05 01:34:17;;;;;;;44.17;23.58;;;2.50;99.90;;;-144.05;76.04;125687.94;5011499;28;20379;-86
2022/12/05 01:36:45;;;;;;;52.33;27.33;;;2.50;99.90;;;-144.05;76.31;125687.94;5011810;28;20474;-86
2022/12/05 01:39:12;;;;;;;58.25;31.83;;;2.50;99.90;;;-144.05;76.20;125687.94;5012239;28;20084;-83
2022/12/05 01:41:45;;;;;;;50.80;26.15;;;2.40;99.90;;;-144.05;76.69;125687.94;5012706;28;20038;-86
2022/12/05 01:44:11;;;;;;;44.22;21.60;;;2.40;99.90;;;-144.05;76.62;125687.94;5012542;28;20045;-85
2022/12/05 01:46:47;;;;;;;43.33;21.85;;;2.50;99.90;;;-144.05;76.75;125687.94;5012545;28;20030;-85
2022/12/05 01:49:32;;;;;;;45.00;22.77;;;2.40;99.90;;;-144.05;76.34;125687.94;5012130;28;20040;-85
2022/12/05 01:52:07;;;;;;;36.67;20.05;;;2.40;99.90;;;-144.05;76.33;125687.94;5010534;28;20038;-86
2022/12/05 01:54:37;;;;;;;41.22;20.75;;;2.40;99.90;;;-144.05;76.24;125687.94;5010947;28;20030;-84
2022/12/05 01:57:11;;;;;;;42.35;22.17;;;2.40;99.90;;;-144.05;76.75;125687.94;5010687;28;20034;-85
2022/12/05 01:59:46;;;;;;;34.78;17.27;;;2.40;99.90;;;-144.05;76.95;125687.94;5011801;28;20559;-84
2022/12/05 02:02:12;;;;;;;47.20;21.67;;;2.40;99.90;;;-144.05;76.61;125687.94;5012332;28;20030;-87
2022/12/05 02:05:20;;;;;;;38.28;21.83;;;2.40;99.90;;;-144.05;76.91;125687.94;5015850;28;20030;-85
2022/12/05 02:07:49;;;;;;;43.83;21.92;;;2.40;99.90;;;-144.05;76.80;125687.94;5017050;28;20128;-88
2022/12/05 02:10:15;;;;;;;42.83;22.60;;;2.40;99.90;;;-144.05;77.01;125687.94;5019740;28;20064;-85
2022/12/05 02:12:43;;;;;;;38.20;19.63;;;2.40;99.90;;;-144.05;77.01;125687.94;5019981;28;20052;-86
2022/12/05 02:15:50;;;;;;;43.10;21.45;;;2.40;99.90;;;-144.05;77.15;125687.94;5022203;28;20030;-87
2022/12/05 02:18:32;;;;;;;38.75;20.77;;;2.40;99.90;;;-144.05;77.05;125687.94;5022216;28;20576;-83
2022/12/05 02:21:32;;;;;;;39.92;21.55;;;2.50;99.90;;;-144.05;76.82;125687.94;5021569;28;20034;-86
2022/12/05 02:24:36;;;;;;;36.92;19.65;;;2.40;99.90;;;-144.05;77.05;125687.94;5018601;28;20061;-86
2022/12/05 02:27:52;;;;;;;41.78;21.02;;;2.40;99.90;;;-144.05;77.53;125687.94;5020652;28;20033;-86
2022/12/05 02:30:30;;;;;;;44.38;20.85;;;2.40;99.90;;;-144.05;77.48;125687.94;5021115;28;20038;-85
2022/12/05 02:33:29;;;;;;;36.55;19.63;;;2.40;99.90;;;-144.05;77.28;125687.94;5020156;28;20030;-86
2022/12/05 02:36:44;;;;;;;39.72;20.77;;;2.40;99.90;;;-144.05;77.36;125687.94;5023935;28;20477;-86
2022/12/05 02:39:36;;;;;;;42.15;21.13;;;2.40;99.90;;;-144.05;77.41;125687.94;5032999;28;20109;-85
2022/12/05 02:42:35;;;;;;;40.70;20.25;;;2.40;99.90;;;-144.05;77.18;125687.94;5015648;28;20036;-86
2022/12/05 02:45:09;;;;;;;44.72;21.25;;;2.40;99.90;;;-144.05;76.93;125687.94;5014211;28;20371;-86
2022/12/05 02:47:49;;;;;;;38.30;19.63;;;2.40;99.90;;;-144.05;77.01;125687.94;5014263;28;20037;-85
2022/12/05 02:50:23;;;;;;;39.50;19.65;;;2.40;99.90;;;-144.05;77.16;125687.94;5013973;28;20026;-85
2022/12/05 02:52:55;;;;;;;42.60;21.20;;;2.40;99.90;;;-144.05;77.13;125687.94;5014100;28;20033;-86
2022/12/05 02:55:27;;;;;;;43.40;20.23;;;2.40;99.90;;;-144.05;77.12;125687.94;5014035;28;20504;-84
2022/12/05 02:58:04;;;;;;;46.42;20.30;;;2.40;99.90;;;-144.05;77.13;125687.94;5013946;28;20084;-85
2022/12/05 03:00:30;;;;;;;41.03;20.77;;;2.50;99.90;;;-144.05;77.19;125687.94;5013902;28;20121;-85
2022/12/05 03:02:59;;;;;;;42.90;21.40;;;2.50;99.90;;;-144.05;77.13;125687.94;5013825;28;20034;-85
2022/12/05 03:05:46;;;;;;;40.08;21.33;;;2.50;99.90;;;-144.05;76.91;125687.94;5013632;28;20030;-85
2022/12/05 03:08:22;;;;;;;42.30;19.80;;;2.50;99.90;;;-144.05;77.18;125687.94;5014954;28;20109;-84
2022/12/05 03:10:52;;;;;;;38.88;21.50;;;2.50;99.90;;;-144.05;76.92;125687.94;5013639;28;20034;-86
2022/12/05 03:13:32;;;;;;;41.08;21.05;;;2.50;99.90;;;-144.05;76.77;125687.94;5014910;28;20116;-86
2022/12/05 03:16:35;;;;;;;43.15;21.45;;;2.50;99.90;;;-144.05;76.63;125687.94;5013494;28;20041;-84
2022/12/05 03:19:16;;;;;;;40.85;21.05;;;2.50;99.90;;;-144.05;76.50;125687.94;5012260;28;20034;-85
2022/12/05 03:22:02;;;;;;;42.70;20.65;;;2.50;99.90;;;-144.05;76.82;125687.94;5012793;28;20569;-85
2022/12/05 03:24:32;;;;;;;43.47;21.80;;;2.50;99.90;;;-144.05;76.92;125687.94;5013794;28;20025;-86
2022/12/05 03:27:25;;;;;;;40.35;19.73;;;2.50;99.90;;;-144.05;76.96;125687.94;5014328;28;20036;-85
2022/12/05 03:30:15;;;;;;;42.47;19.20;;;2.50;99.90;;;-144.05;76.97;125687.94;5014630;28;20084;-86
2022/12/05 03:33:28;;;;;;;34.78;18.30;;;2.50;99.90;;;-144.05;76.74;125687.94;5014366;28;20029;-85
2022/12/05 03:36:27;;;;;;;38.40;19.58;;;2.50;99.90;;;-144.05;76.38;125687.94;5014500;28;20050;-85
2022/12/05 03:39:09;;;;;;;38.65;19.40;;;2.50;99.90;;;-144.05;76.61;125687.94;5014278;28;20068;-86
2022/12/05 03:41:59;;;;;;;43.75;20.90;;;2.50;99.90;;;-144.05;76.56;125687.94;5015658;28;20030;-88
2022/12/05 03:44:55;;;;;;;37.92;20.33;;;2.50;99.90;;;-144.05;77.01;125687.94;5014715;28;20030;-85
2022/12/05 03:47:46;;;;;;;42.72;21.58;;;2.50;99.90;;;-144.05;77.48;125687.94;5014593;28;20045;-86
2022/12/05 03:50:28;;;;;;;41.65;20.35;;;2.50;99.90;;;-144.05;76.90;125687.94;5014426;28;20075;-85
2022/12/05 03:53:19;;;;;;;43.30;21.65;;;2.50;99.90;;;-144.05;77.14;125687.94;5014128;28;20033;-86
2022/12/05 03:56:05;;;;;;;43.38;22.75;;;2.50;99.90;;;-144.05;76.84;125687.94;5014463;28;20073;-83
2022/12/05 03:58:42;;;;;;;;;;;2.50;99.90;;;-144.05;76.48;125687.94;5014743;28;20029;-84
2022/12/05 04:01:15;;;;;;;36.13;19.05;;;2.50;99.90;;;-144.05;76.59;125687.94;5015730;28;19910;-87
2022/12/05 04:03:56;;;;;;;39.63;19.70;;;2.50;99.90;;;-144.05;77.02;125687.94;5013627;28;20088;-85
2022/12/05 04:06:35;;;;;;;41.47;19.85;;;2.40;99.90;;;-144.05;77.65;125687.94;5015235;28;20036;-87
2022/12/05 04:09:20;;;;;;;39.13;19.75;;;2.40;99.90;;;-144.05;77.24;125687.94;5014169;28;20034;-84
2022/12/05 04:11:59;;;;;;;42.03;20.20;;;2.40;99.90;;;-144.05;76.99;125687.94;5012923;28;20026;-85
2022/12/05 04:14:37;;;;;;;44.00;20.05;;;2.40;99.90;;;-144.05;77.34;125687.94;5013388;28;20033;-87
2022/12/05 04:17:32;;;;;;;36.58;17.95;;;2.40;99.90;;;-144.05;77.31;125687.94;5013112;28;20107;-85
2022/12/05 04:22:58;;;;;;;35.90;17.83;;;2.30;99.90;;;-144.05;77.78;125687.94;5013339;28;20044;-85
2022/12/05 04:25:32;;;;;;;38.65;19.65;;;2.20;99.90;;;-144.05;78.19;125687.94;5013256;28;20048;-83
2022/12/05 04:28:55;;;;;;;39.58;20.58;;;2.20;99.90;;;-144.05;78.03;125687.94;5011168;28;20030;-84
2022/12/05 04:31:41;;;;;;;37.60;18.60;;;2.20;99.90;;;-144.05;77.93;125687.94;4917367;29;20155;-84
2022/12/05 04:34:14;;;;;;;39.20;18.85;;;2.20;99.90;;;-144.05;77.75;125687.94;4918211;29;20074;-87
2022/12/05 04:36:59;;;;;;;33.03;18.80;;;2.20;99.90;;;-144.05;77.83;125687.94;4995889;28;20026;-86
2022/12/05 04:39:39;;;;;;;37.75;18.88;;;2.20;99.90;;;-144.05;77.89;125687.94;5011471;28;20124;-84
2022/12/05 04:42:18;;;;;;;38.22;19.48;;;2.20;99.90;;;-144.05;78.14;125687.94;5012136;28;20101;-86
2022/12/05 04:44:59;;;;;;;36.45;17.92;;;2.30;99.90;;;-144.05;78.03;125687.94;5021304;28;20046;-84
2022/12/05 04:47:36;;;;;;;32.17;17.13;;;2.30;99.90;;;-144.05;78.88;125687.94;5031694;28;20041;-86
2022/12/05 04:50:06;;;;;;;32.72;18.55;;;2.30;99.90;;;-144.05;78.66;125687.94;5014171;28;20049;-86
2022/12/05 04:52:35;;;;;;;38.33;18.83;;;2.30;99.90;;;-144.05;78.82;125687.94;5014666;28;20456;-88
2022/12/05 04:55:19;;;;;;;37.53;19.55;;;2.30;99.90;;;-144.05;78.70;125687.94;5013452;28;20065;-84
2022/12/05 04:57:59;;;;;;;35.05;19.50;;;2.30;99.90;;;-144.05;78.46;125687.94;5013372;28;20068;-87
2022/12/05 05:00:29;;;;;;;38.03;18.95;;;2.30;99.90;;;-144.05;79.07;125687.94;5014809;28;20055;-84
2022/12/05 05:03:18;;;;;;;43.00;20.60;;;2.30;99.90;;;-144.05;79.12;125687.94;5013494;28;20030;-85
2022/12/05 05:05:53;;;;;;;37.40;19.35;;;2.30;99.90;;;-144.05;78.74;125687.94;5013894;28;20184;-87
2022/12/05 05:08:30;;;;;;;37.35;18.80;;;2.30;99.90;;;-144.05;78.66;125687.94;5014064;28;20044;-86
2022/12/05 05:11:34;;;;;;;42.17;19.17;;;2.30;99.90;;;-144.05;78.96;125687.94;5015829;28;20116;-87
2022/12/05 05:14:03;;;;;;;35.80;18.00;;;2.30;99.90;;;-144.05;78.65;125687.94;5003228;28;20499;-85
2022/12/05 05:16:41;;;;;;;40.53;20.15;;;2.30;99.90;;;-144.05;78.80;125687.94;5013158;28;20029;-85
2022/12/05 05:19:10;;;;;;;39.67;18.50;;;2.30;99.90;;;-144.05;79.04;125687.94;5013904;28;20045;-87
2022/12/05 05:21:41;;;;;;;35.58;18.88;;;2.30;99.90;;;-144.05;78.94;125687.94;5015655;28;20038;-84
2022/12/05 05:24:11;;;;;;;37.40;18.48;;;2.30;99.90;;;-144.05;79.05;125687.94;5015874;28;20026;-86
2022/12/05 05:26:42;;;;;;;36.80;18.67;;;2.30;99.90;;;-144.05;79.07;125687.94;5015895;28;20082;-87
2022/12/05 05:29:10;;;;;;;39.75;19.55;;;2.30;99.90;;;-144.05;78.85;125687.94;5014673;28;20076;-87
2022/12/05 05:31:38;;;;;;;39.38;19.48;;;2.20;99.90;;;-144.05;79.08;125687.94;5015387;28;20061;-86
2022/12/05 05:34:05;;;;;;;38.92;20.20;;;2.20;99.90;;;-144.05;79.15;125687.94;5015744;28;20030;-87
2022/12/05 05:36:31;;;;;;;39.80;20.10;;;2.20;99.90;;;-144.05;79.13;125687.94;5015251;28;20072;-87
2022/12/05 05:39:01;;;;;;;40.75;19.88;;;2.20;99.90;;;-144.05;79.14;125687.94;5016768;28;20030;-85
2022/12/05 05:41:35;;;;;;;31.48;18.08;;;2.20;99.90;;;-144.05;78.87;125687.94;5028039;28;20053;-84
2022/12/05 05:44:03;;;;;;;31.58;18.00;;;2.20;99.90;;;-144.05;78.98;125687.94;5028585;28;20030;-84
2022/12/05 05:46:33;;;;;;;39.22;18.20;;;2.20;99.90;;;-144.05;79.01;125687.94;5028748;28;20029;-85
2022/12/05 05:49:00;;;;;;;33.97;17.02;;;2.10;99.90;;;-144.05;78.89;125687.94;5016935;28;20093;-84
2022/12/05 05:51:28;;;;;;;37.83;17.40;;;2.10;99.90;;;-144.05;78.74;125687.94;5018471;28;20112;-84
2022/12/05 05:53:56;;;;;;;38.60;19.00;;;2.10;99.90;;;-144.05;78.91;125687.94;5017240;28;20032;-85
2022/12/05 05:56:22;;;;;;;49.22;23.73;;;2.10;99.90;;;-144.05;79.55;125687.94;5017133;28;20037;-85
2022/12/05 05:58:56;;;;;;;42.10;21.05;;;2.10;99.90;;;-144.05;79.73;125687.94;5018066;28;20034;-87
2022/12/05 06:01:22;;;;;;;46.50;22.00;;;2.10;99.90;;;-144.05;79.06;125687.94;5017512;28;20033;-86
2022/12/05 06:03:52;;;;;;;85.63;38.75;;;2.10;99.90;;;-144.05;79.21;125687.94;5018062;28;20038;-85
2022/12/05 06:06:19;;;;;;;49.20;26.13;;;2.10;99.90;;;-144.05;79.69;125687.94;5017872;28;20466;-84
2022/12/05 06:08:47;;;;;;;43.10;23.58;;;2.10;99.90;;;-144.05;79.63;125687.94;5017483;28;20034;-86
2022/12/05 06:11:24;;;;;;;48.00;24.98;;;2.10;99.90;;;-144.05;79.58;125687.94;5017307;28;20030;-84
2022/12/05 06:13:51;;;;;;;41.22;23.20;;;2.10;99.90;;;-144.05;79.16;125687.94;5018211;28;20032;-85
2022/12/05 06:16:19;;;;;;;34.42;18.55;;;2.10;99.90;;;-144.05;79.22;125687.94;5017204;28;20093;-86
2022/12/05 06:18:45;;;;;;;45.20;21.40;;;2.10;99.90;;;-144.05;79.50;125687.94;5017081;28;20041;-86
2022/12/05 06:21:11;;;;;;;36.42;19.50;;;2.10;99.90;;;-144.05;79.58;125687.94;5017125;28;20030;-85
2022/12/05 06:23:39;;;;;;;33.10;19.52;;;2.10;99.90;;;-144.05;79.32;125687.94;5017049;28;20026;-86
2022/12/05 06:26:12;;;;;;;109.13;63.65;;;2.10;99.90;;;-144.05;79.41;125687.94;5017324;28;20474;-85
2022/12/05 06:28:38;;;;;;;40.67;21.33;;;2.10;99.90;;;-144.05;79.23;125687.94;5018813;28;20033;-83
2022/12/05 06:31:17;;;;;;;41.88;21.55;;;2.00;99.90;;;-144.05;79.30;125687.94;5019436;28;20458;-85
2022/12/05 06:33:44;;;;;;;38.70;20.45;;;2.00;99.90;;;-144.05;79.08;125687.94;5018084;28;20045;-84
2022/12/05 06:36:16;;;;;;;34.97;18.65;;;2.00;99.90;;;-144.05;79.50;125687.94;5019325;28;20031;-84
2022/12/05 06:38:43;;;;;;;33.70;17.58;;;2.00;99.90;;;-144.05;79.17;125687.94;5020032;28;20034;-86
2022/12/05 06:41:17;;;;;;;31.40;17.40;;;2.00;99.90;;;-144.05;79.15;125687.94;5020759;28;20030;-84
2022/12/05 06:43:44;;;;;;;30.63;16.38;;;1.90;99.90;;;-144.05;79.16;125687.94;5021414;28;20030;-84
2022/12/05 06:46:14;;;;;;;34.97;17.92;;;1.90;99.90;;;-144.05;79.27;125687.94;5018684;28;20029;-86
2022/12/05 06:48:39;;;;;;;34.08;18.73;;;1.90;99.90;;;-144.05;79.31;125687.94;5017829;28;20057;-88
2022/12/05 06:51:11;;;;;;;36.38;18.17;;;1.80;99.90;;;-144.05;79.39;125687.94;5028175;28;20035;-83
2022/12/05 06:53:39;;;;;;;30.38;16.65;;;1.80;99.90;;;-144.05;79.41;125687.94;5029717;28;20034;-85
2022/12/05 06:56:15;;;;;;;28.50;16.48;;;1.80;99.90;;;-144.05;79.70;125687.94;5018064;28;20026;-86
2022/12/05 06:58:48;;;;;;;32.10;16.40;;;1.70;99.90;;;-144.05;79.43;125687.94;5017244;28;20034;-88
2022/12/05 07:01:45;;;;;;;33.88;17.17;;;1.70;99.90;;;-144.05;79.25;125687.94;5017722;28;20026;-83
2022/12/05 07:04:19;;;;;;;27.33;16.20;;;1.60;99.90;;;-144.05;79.37;125687.94;5018827;28;20464;-85
2022/12/05 07:06:48;;;;;;;32.70;17.02;;;1.50;99.90;;;-144.05;79.84;125687.94;5017257;28;20034;-86
2022/12/05 07:09:14;;;;;;;30.83;16.85;;;1.50;99.90;;;-144.05;79.76;125687.94;5016263;28;20034;-87
2022/12/05 07:11:40;;;;;;;36.60;18.67;;;1.50;99.90;;;-144.05;79.79;125687.94;5016236;28;20451;-86
2022/12/05 07:14:08;;;;;;;30.98;16.25;;;1.40;99.90;;;-144.05;79.33;125687.94;5018368;28;20026;-86
2022/12/05 07:16:35;;;;;;;29.08;15.95;;;1.30;99.90;;;-144.05;79.23;125687.94;5018315;28;20028;-83
2022/12/05 07:19:00;;;;;;;32.90;16.23;;;1.30;99.90;;;-144.05;79.08;125687.94;5016925;28;20022;-87
2022/12/05 07:21:27;;;;;;;28.40;15.63;;;1.20;99.90;;;-144.05;79.40;125687.94;5018861;28;20312;-83
2022/12/05 07:23:54;;;;;;;30.23;16.20;;;1.20;99.90;;;-144.05;79.20;125687.94;5018117;28;20053;-85
2022/12/05 07:26:23;;;;;;;30.08;16.35;;;1.20;99.90;;;-144.05;79.43;125687.94;5019812;28;20072;-84
2022/12/05 07:28:54;;;;;;;31.67;14.82;;;1.20;99.90;;;-144.05;79.17;125687.94;5018786;28;20026;-87
2022/12/05 07:31:32;;;;;;;29.40;16.60;;;1.10;99.90;;;-144.05;79.27;125687.94;5018109;28;20036;-85
2022/12/05 07:33:58;;;;;;;30.52;16.27;;;1.20;99.90;;;-144.05;79.18;125687.94;5018791;28;20397;-85
2022/12/05 07:36:24;;;;;;;28.58;15.13;;;1.10;99.90;;;-144.05;79.23;125687.94;5017871;28;20029;-84
2022/12/05 07:38:57;;;;;;;29.25;15.82;;;1.10;99.90;;;-144.05;79.18;125687.94;5017998;28;20136;-85
2022/12/05 07:41:29;;;;;;;27.02;15.52;;;1.10;99.90;;;-144.05;79.53;125687.94;5020785;28;20037;-85
2022/12/05 07:43:58;;;;;;;33.00;15.55;;;1.10;99.90;;;-144.05;79.50;125687.94;5020847;28;20026;-84
2022/12/05 07:46:27;;;;;;;25.88;16.00;;;1.10;99.90;;;-144.05;79.26;125687.94;5019162;28;20026;-84
2022/12/05 07:48:56;;;;;;;29.73;16.52;;;1.10;99.90;;;-144.05;79.45;125687.94;5017704;28;20034;-84
2022/12/05 07:51:25;;;;;;;29.65;16.92;;;1.10;99.90;;;-144.05;79.40;125687.94;5019792;28;20032;-83
2022/12/05 07:53:51;;;;;;;27.95;16.70;;;1.10;99.90;;;-144.05;79.41;125687.94;5019713;28;20034;-87
2022/12/05 07:56:19;;;;;;;30.05;15.52;;;1.10;99.90;;;-144.05;79.67;125687.94;5020024;28;20054;-89
2022/12/05 07:59:20;;;;;;;28.40;16.80;;;1.10;99.90;;;-144.05;79.32;125687.94;5018856;28;20026;-86
2022/12/05 08:01:46;;;;;;;29.85;16.92;;;1.00;99.90;;;-144.05;79.33;125687.94;5004795;28;20104;-86
2022/12/05 08:04:15;;;;;;;36.08;17.15;;;1.10;99.90;;;-144.05;79.72;125687.94;5018551;28;20034;-85
2022/12/05 08:06:41;;;;;;;34.90;17.48;;;1.10;99.90;;;-144.05;79.45;125687.94;5018931;28;20038;-86
2022/12/05 08:09:07;;;;;;;27.35;15.68;;;1.10;99.90;;;-144.05;79.55;125687.94;5019741;28;20040;-86
2022/12/05 08:11:46;;;;;;;28.50;15.35;;;1.10;99.90;;;-144.05;79.77;125687.94;5019982;28;20038;-86
2022/12/05 08:14:12;;;;;;;28.20;17.13;;;1.10;99.90;;;-144.05;79.70;125687.94;5020121;28;20107;-85
2022/12/05 08:16:38;;;;;;;29.15;16.55;;;1.10;99.90;;;-144.05;79.71;125687.94;5020087;28;20482;-85
2022/12/05 08:19:15;;;;;;;26.48;16.67;;;1.10;99.90;;;-144.05;79.50;125687.94;5020886;28;20124;-87
2022/12/05 08:22:12;;;;;;;;;;;;;;;;;;;;;
2022/12/05 08:25:43;;;;;;;30.88;16.58;;;1.10;99.90;;;-144.05;79.67;125687.94;5017753;28;20502;-86
2022/12/05 08:28:33;;;;;;;29.23;16.60;;;1.10;99.90;;;-144.05;79.48;125687.94;5016472;28;20045;-85
2022/12/05 08:44:54;;;;;;;30.60;17.45;;;1.20;99.90;;;-144.05;79.34;125687.94;4978972;28;20041;-87
2022/12/05 08:47:32;;;;;;;28.25;14.40;;;1.20;99.90;;;-144.05;79.65;125687.94;4962553;28;20454;-87
2022/12/05 08:59:18;;;;;;;30.08;15.80;;;1.20;99.90;;;-144.05;79.75;125687.94;4981300;28;20509;-85
2022/12/05 09:06:11;;;;;;;28.25;15.32;;;1.30;99.90;;;-144.05;80.03;125687.94;4977455;28;20085;-83
2022/12/05 09:08:39;;;;;;;28.13;16.42;;;1.30;99.90;;;-144.05;79.66;125687.94;5018118;23;20563;-79
2022/12/05 09:11:09;;;;;;;29.52;16.70;;;1.30;99.90;;;-144.05;79.50;125687.94;5032821;28;20449;-78
2022/12/05 09:13:36;;;;;;;31.70;16.15;;;1.30;99.90;;;-144.05;79.47;125687.94;5033457;28;20064;-79
2022/12/05 09:16:16;;;;;;;28.83;16.02;;;1.20;99.90;;;-144.05;79.54;125687.94;5038443;28;20465;-78
2022/12/05 09:18:43;;;;;;;27.05;15.52;;;1.30;99.90;;;-144.05;79.70;125687.94;5039198;28;20033;-78
2022/12/05 09:21:18;;;;;;;32.17;16.52;;;1.30;99.90;;;-144.05;79.61;125687.94;5062548;22;20059;-80
2022/12/05 09:23:44;;;;;;;30.15;16.92;;;1.30;99.90;;;-144.05;79.88;125687.94;5017574;28;20065;-82
2022/12/05 09:26:14;;;;;;;27.55;15.70;;;1.30;99.90;;;-144.05;79.62;125687.94;5008489;28;20054;-81
2022/12/05 09:28:43;;;;;;;29.65;15.77;;;1.30;99.90;;;-144.05;79.67;125687.94;5007444;28;20040;-83
2022/12/05 09:31:17;;;;;;;27.95;16.33;;;1.20;99.90;;;-144.05;79.52;125687.94;5007931;28;20031;-84
2022/12/05 09:33:43;;;;;;;29.80;16.23;;;1.20;99.90;;;-144.05;78.73;125687.94;5008516;28;20035;-84
2022/12/05 09:36:18;;;;;;;27.58;15.43;;;1.30;99.90;;;-144.05;78.83;125687.94;5007541;28;20026;-83
2022/12/05 09:38:45;;;;;;;33.25;16.48;;;1.20;99.90;;;-144.05;79.10;125687.94;5005478;28;20037;-81
2022/12/05 09:42:03;;;;;;;27.35;16.20;;;1.20;99.90;;;-144.05;79.36;125687.94;5006065;28;20049;-84
2022/12/05 09:44:38;;;;;;;28.00;16.27;;;1.20;99.90;;;-144.05;79.37;125687.94;5006037;28;20030;-83
2022/12/05 09:47:44;;;;;;;32.40;17.27;;;1.30;99.90;;;-144.05;79.45;125687.94;5004822;28;20033;-81
2022/12/05 09:50:29;;;;;;;28.57;15.60;;;1.30;99.90;;;-144.05;79.32;125687.94;5004848;28;20066;-81
2022/12/05 09:53:26;;;;;;;25.98;16.40;;;1.30;99.90;;;-144.05;79.33;125687.94;5005117;28;20029;-81
2022/12/05 09:56:02;;;;;;;29.83;17.55;;;1.30;99.90;;;-144.05;79.60;125687.94;5004851;28;20394;-82
2022/12/05 09:58:50;;;;;;;27.90;16.20;;;1.30;99.90;;;-144.05;79.63;125687.94;5003469;28;20022;-84
2022/12/05 10:02:00;;;;;;;31.77;16.40;;;1.30;99.90;;;-144.05;79.65;125687.94;5005112;28;20109;-81
2022/12/05 10:04:56;;;;;;;31.35;17.48;;;1.30;99.90;;;-144.05;79.51;125687.94;5004832;28;20394;-82
2022/12/05 10:07:43;;;;;;;30.70;16.83;;;1.40;99.90;;;-144.05;79.84;125687.94;5003762;28;20098;-83
2022/12/05 10:10:38;;;;;;;30.60;16.42;;;1.40;99.90;;;-144.05;79.53;125687.94;5006093;28;20106;-82
2022/12/05 10:13:39;;;;;;;28.55;16.58;;;1.40;99.90;;;-144.05;79.87;125687.94;5006180;28;20065;-84
2022/12/05 10:16:19;;;;;;;36.08;17.58;;;1.40;99.90;;;-144.05;79.58;125687.94;5003592;28;20088;-79
2022/12/05 10:18:58;;;;;;;25.67;15.90;;;1.40;99.90;;;-144.05;79.96;125687.94;5003810;28;20054;-84
2022/12/05 10:21:42;;;;;;;32.03;19.17;;;1.40;99.90;;;-144.05;79.82;125687.94;5003079;28;20121;-81
2022/12/05 10:24:23;;;;;;;28.83;17.17;;;1.40;99.90;;;-144.05;79.70;125687.94;5004346;28;20062;-81
2022/12/05 10:27:06;;;;;;;34.20;18.88;;;1.40;99.90;;;-144.05;79.57;125687.94;4999371;28;20026;-83
2022/12/05 10:29:54;;;;;;;30.50;19.23;;;1.40;99.90;;;-144.05;79.40;125687.94;5001103;28;20026;-80
2022/12/05 10:32:34;;;;;;;32.88;19.23;;;1.40;99.90;;;-144.05;79.58;125687.94;5000388;28;20041;-83
2022/12/05 10:35:32;;;;;;;33.22;18.55;;;1.40;99.90;;;-144.05;79.52;125687.94;5000336;28;20037;-83
2022/12/05 10:38:30;;;;;;;33.83;19.08;;;1.40;99.90;;;-144.05;79.62;125687.94;4999806;28;20033;-78
2022/12/05 10:41:06;;;;;;;32.28;19.40;;;1.40;99.90;;;-144.05;79.55;125687.94;4996290;28;20085;-79
2022/12/05 10:43:38;;;;;;;37.53;20.45;;;1.40;99.90;;;-144.05;79.31;125687.94;5001793;28;20092;-81
2022/12/05 10:46:05;;;;;;;34.60;19.27;;;1.40;99.90;;;-144.05;79.23;125687.94;4998684;28;20394;-80
2022/12/05 10:48:38;;;;;;;32.50;19.20;;;1.40;99.90;;;-144.05;79.33;125687.94;4999547;28;20054;-81
2022/12/05 10:51:06;;;;;;;37.78;19.95;;;1.40;99.90;;;-144.05;79.57;125687.94;5001016;28;20030;-82
2022/12/05 10:53:49;;;;;;;35.85;21.30;;;1.30;99.90;;;-144.05;79.36;125687.94;5001313;28;20026;-83
2022/12/05 10:56:38;;;;;;;33.45;19.15;;;1.40;99.90;;;-144.05;79.79;125687.94;5000691;28;20030;-83
2022/12/05 10:59:08;;;;;;;38.88;20.65;;;1.40;99.90;;;-144.05;79.42;125687.94;5001240;28;20054;-82
2022/12/05 11:01:37;;;;;;;36.90;22.00;;;1.30;99.90;;;-144.05;79.22;125687.94;5000477;28;20073;-82
2022/12/05 11:04:45;;;;;;;39.45;22.27;;;1.30;99.90;;;-144.05;79.18;125687.94;5000029;28;20041;-80